createdAt,value
2022-10-03T00:01:03.525Z,4.07
2022-10-03T00:03:35.405Z,3.97
2022-10-03T00:06:02.817Z,3.60
2022-10-03T00:08:43.797Z,3.75
2022-10-03T00:11:19.139Z,3.50
2022-10-03T00:16:21.229Z,3.85
2022-10-03T00:19:05.387Z,3.40
2022-10-03T00:21:40.924Z,3.42
2022-10-03T00:24:09.044Z,3.47
2022-10-03T00:26:39.558Z,3.45
2022-10-03T00:29:10.461Z,3.92
2022-10-03T00:31:52.319Z,3.35
2022-10-03T00:34:35.651Z,3.30
2022-10-03T00:37:18.329Z,3.45
2022-10-03T00:39:59.900Z,3.22
2022-10-03T00:42:40.353Z,2.60
2022-10-03T00:45:26.369Z,3.08
2022-10-03T00:47:59.854Z,2.78
2022-10-03T00:50:27.302Z,3.28
2022-10-03T00:53:00.490Z,2.92
2022-10-03T00:55:47.324Z,2.72
2022-10-03T00:58:29.913Z,2.63
2022-10-03T01:01:00.457Z,3.00
2022-10-03T01:03:29.107Z,3.38
2022-10-03T01:06:08.708Z,2.45
2022-10-03T01:08:55.184Z,2.90
2022-10-03T01:11:22.492Z,2.75
2022-10-03T01:14:22.381Z,3.63
2022-10-03T01:17:09.973Z,2.83
2022-10-03T01:20:00.395Z,2.47
2022-10-03T01:22:36.697Z,2.42
2022-10-03T01:25:19.862Z,2.67
2022-10-03T01:28:28.878Z,3.20
2022-10-03T01:31:02.816Z,2.92
2022-10-03T01:33:39.899Z,2.88
2022-10-03T01:36:10.332Z,2.70
2022-10-03T01:38:40.625Z,3.13
2022-10-03T01:41:12.347Z,2.95
2022-10-03T01:43:42.697Z,2.67
2022-10-03T01:46:17.295Z,2.67
2022-10-03T01:48:57.772Z,2.58
2022-10-03T01:51:25.097Z,2.90
2022-10-03T01:54:08.152Z,2.85
2022-10-03T01:56:40.078Z,3.50
2022-10-03T01:59:18.581Z,3.25
2022-10-03T02:01:52.065Z,3.20
2022-10-03T02:04:25.589Z,2.90
2022-10-03T02:06:59.634Z,2.70
2022-10-03T02:09:36.644Z,3.20
2022-10-03T02:12:18.002Z,3.78
2022-10-03T02:14:51.084Z,3.13
2022-10-03T02:17:24.251Z,3.22
2022-10-03T02:20:14.136Z,3.75
2022-10-03T02:22:43.031Z,4.00
2022-10-03T02:25:33.981Z,4.78
2022-10-03T02:28:07.726Z,4.00
2022-10-03T02:30:48.056Z,4.15
2022-10-03T02:33:37.061Z,3.80
2022-10-03T02:36:35.427Z,3.85
2022-10-03T02:39:05.576Z,4.60
2022-10-03T02:41:51.997Z,3.92
2022-10-03T02:44:35.187Z,4.20
2022-10-03T02:47:11.864Z,4.07
2022-10-03T02:49:59.425Z,4.25
2022-10-03T02:52:37.822Z,4.05
2022-10-03T02:55:08.147Z,4.20
2022-10-03T02:57:41.776Z,4.10
2022-10-03T03:00:09.854Z,4.78
2022-10-03T03:02:56.088Z,4.70
2022-10-03T03:05:28.702Z,5.00
2022-10-03T03:08:15.221Z,4.60
2022-10-03T03:11:08.570Z,4.30
2022-10-03T03:13:42.277Z,4.53
2022-10-03T03:16:33.663Z,4.53
2022-10-03T03:19:24.178Z,4.93
2022-10-03T03:22:01.154Z,4.50
2022-10-03T03:24:47.714Z,4.43
2022-10-03T03:27:18.344Z,4.45
2022-10-03T03:30:04.191Z,4.75
2022-10-03T03:32:58.060Z,4.80
2022-10-03T03:35:25.606Z,4.35
2022-10-03T03:38:02.729Z,4.20
2022-10-03T03:40:41.861Z,5.13
2022-10-03T03:43:18.260Z,5.20
2022-10-03T03:46:04.594Z,4.22
2022-10-03T03:48:41.502Z,5.00
2022-10-03T03:51:28.450Z,4.45
2022-10-03T03:54:28.420Z,4.00
2022-10-03T03:57:22.141Z,4.53
2022-10-03T04:00:00.168Z,4.63
2022-10-03T04:02:47.728Z,5.07
2022-10-03T04:05:24.514Z,4.78
2022-10-03T04:08:12.306Z,5.03
2022-10-03T04:10:58.613Z,5.05
2022-10-03T04:13:30.212Z,4.93
2022-10-03T04:16:03.485Z,5.20
2022-10-03T04:19:01.889Z,4.57
2022-10-03T04:21:42.172Z,4.72
2022-10-03T04:24:10.093Z,4.35
2022-10-03T04:26:38.353Z,4.70
2022-10-03T04:29:07.678Z,5.05
2022-10-03T04:31:57.292Z,4.95
2022-10-03T04:34:43.250Z,5.45
2022-10-03T04:37:16.877Z,5.65
2022-10-03T04:39:45.547Z,5.03
2022-10-03T04:42:31.417Z,5.53
2022-10-03T04:45:22.138Z,6.28
2022-10-03T04:47:53.981Z,5.47
2022-10-03T04:50:41.034Z,5.80
2022-10-03T04:53:29.927Z,5.70
2022-10-03T04:56:03.505Z,5.15
2022-10-03T04:58:53.676Z,5.40
2022-10-03T05:01:24.075Z,5.00
2022-10-03T05:04:05.326Z,5.68
2022-10-03T05:06:32.732Z,5.32
2022-10-03T05:09:26.872Z,6.07
2022-10-03T05:12:02.000Z,5.72
2022-10-03T05:14:38.467Z,5.00
2022-10-03T05:17:24.570Z,5.35
2022-10-03T05:20:00.698Z,5.38
2022-10-03T05:22:31.429Z,6.53
2022-10-03T05:25:04.987Z,6.32
2022-10-03T05:27:42.313Z,5.40
2022-10-03T05:30:20.371Z,5.95
2022-10-03T05:33:08.951Z,6.63
2022-10-03T05:35:51.296Z,6.35
2022-10-03T05:38:28.125Z,5.57
2022-10-03T05:41:22.683Z,5.18
2022-10-03T05:43:58.878Z,5.80
2022-10-03T05:46:41.573Z,5.82
2022-10-03T05:49:28.221Z,6.88
2022-10-03T05:51:55.574Z,6.38
2022-10-03T05:54:29.097Z,5.47
2022-10-03T05:57:09.902Z,5.22
2022-10-03T05:59:37.862Z,5.18
2022-10-03T06:02:24.969Z,5.38
2022-10-03T06:04:53.556Z,5.78
2022-10-03T06:07:21.129Z,5.05
2022-10-03T06:10:08.851Z,4.85
2022-10-03T06:12:43.436Z,5.50
2022-10-03T06:15:20.003Z,5.47
2022-10-03T06:17:50.510Z,5.47
2022-10-03T06:20:38.911Z,5.40
2022-10-03T06:23:07.388Z,5.97
2022-10-03T06:26:18.672Z,5.60
2022-10-03T06:28:52.131Z,5.13
2022-10-03T06:31:22.535Z,6.30
2022-10-03T06:34:08.564Z,5.68
2022-10-03T06:36:48.088Z,6.65
2022-10-03T06:39:34.477Z,6.43
2022-10-03T06:42:17.248Z,5.97
2022-10-03T06:45:00.922Z,5.88
2022-10-03T06:47:28.510Z,6.05
2022-10-03T06:50:16.959Z,5.38
2022-10-03T06:52:44.750Z,5.70
2022-10-03T06:55:27.998Z,5.88
2022-10-03T06:58:27.939Z,5.45
2022-10-03T07:01:14.192Z,6.95
2022-10-03T07:03:53.806Z,5.25
2022-10-03T07:06:30.315Z,5.85
2022-10-03T07:08:58.440Z,5.22
2022-10-03T07:11:33.571Z,5.38
2022-10-03T07:14:37.412Z,4.97
2022-10-03T07:17:23.771Z,7.00
2022-10-03T07:19:55.506Z,5.20
2022-10-03T07:22:26.031Z,4.85
2022-10-03T07:25:12.052Z,5.40
2022-10-03T07:27:50.812Z,5.35
2022-10-03T07:30:20.033Z,6.28
2022-10-03T07:32:59.670Z,5.93
2022-10-03T07:35:57.846Z,5.47
2022-10-03T07:39:04.771Z,6.00
2022-10-03T07:41:37.077Z,5.32
2022-10-03T07:44:04.538Z,4.15
2022-10-03T07:46:42.387Z,5.60
2022-10-03T07:49:28.851Z,5.43
2022-10-03T07:52:02.092Z,5.65
2022-10-03T07:54:35.606Z,5.43
2022-10-03T07:57:24.474Z,4.80
2022-10-03T07:59:57.653Z,5.32
2022-10-03T08:02:34.509Z,4.90
2022-10-03T08:05:20.575Z,4.90
2022-10-03T08:07:59.157Z,5.15
2022-10-03T08:10:26.797Z,4.45
2022-10-03T08:13:14.831Z,4.88
2022-10-03T08:15:53.440Z,4.68
2022-10-03T08:18:30.860Z,5.00
2022-10-03T08:21:00.326Z,5.10
2022-10-03T08:23:27.679Z,4.68
2022-10-03T08:26:00.454Z,5.75
2022-10-03T08:28:27.807Z,5.97
2022-10-03T08:31:08.163Z,4.93
2022-10-03T08:33:54.571Z,5.57
2022-10-03T08:36:42.988Z,5.00
2022-10-03T08:39:14.057Z,5.07
2022-10-03T08:41:41.690Z,4.63
2022-10-03T08:44:29.541Z,4.53
2022-10-03T08:47:08.026Z,5.38
2022-10-03T08:50:04.391Z,5.20
2022-10-03T08:52:39.207Z,4.95
2022-10-03T08:55:33.380Z,4.80
2022-10-03T08:58:26.885Z,5.10
2022-10-03T09:01:13.663Z,4.95
2022-10-03T09:03:48.714Z,4.90
2022-10-03T09:06:27.318Z,5.30
2022-10-03T09:09:14.409Z,5.57
2022-10-03T09:11:47.713Z,5.35
2022-10-03T09:14:35.751Z,4.60
2022-10-03T09:17:08.879Z,5.15
2022-10-03T09:19:40.942Z,4.45
2022-10-03T09:22:33.678Z,4.97
2022-10-03T09:25:14.845Z,7.07
2022-10-03T09:27:45.605Z,6.13
2022-10-03T09:30:23.268Z,6.78
2022-10-03T09:32:56.974Z,5.75
2022-10-03T09:35:30.595Z,5.88
2022-10-03T09:38:07.374Z,5.85
2022-10-03T09:40:40.925Z,5.25
2022-10-03T09:43:11.477Z,5.45
2022-10-03T09:45:50.050Z,5.53
2022-10-03T09:48:17.647Z,4.57
2022-10-03T09:50:52.113Z,6.03
2022-10-03T09:53:38.531Z,4.18
2022-10-03T09:56:11.837Z,5.18
2022-10-03T09:58:55.215Z,4.13
2022-10-03T10:01:39.192Z,4.70
2022-10-03T10:04:43.362Z,5.35
2022-10-03T10:07:28.025Z,4.30
2022-10-03T10:10:00.373Z,4.00
2022-10-03T10:12:33.533Z,4.53
2022-10-03T10:15:18.722Z,3.97
2022-10-03T10:18:05.395Z,4.45
2022-10-03T10:20:36.001Z,4.75
2022-10-03T10:23:18.560Z,3.78
2022-10-03T10:26:04.909Z,3.30
2022-10-03T10:29:10.762Z,3.95
2022-10-03T10:31:58.467Z,3.47
2022-10-03T10:35:01.032Z,3.47
2022-10-03T10:37:47.716Z,2.78
2022-10-03T10:40:35.315Z,3.85
2022-10-03T10:43:10.833Z,2.83
2022-10-03T10:46:04.936Z,2.72
2022-10-03T10:49:07.919Z,3.15
2022-10-03T10:51:54.334Z,3.35
2022-10-03T10:54:21.588Z,3.30
2022-10-03T10:57:10.510Z,3.67
2022-10-03T10:59:38.668Z,2.70
2022-10-03T11:02:06.250Z,3.85
2022-10-03T11:04:52.999Z,3.67
2022-10-03T11:07:26.743Z,3.45
2022-10-03T11:10:15.246Z,3.08
2022-10-03T11:12:52.277Z,4.43
2022-10-03T11:15:36.282Z,2.90
2022-10-03T11:18:10.026Z,4.75
2022-10-03T11:20:57.406Z,3.50
2022-10-03T11:23:24.742Z,3.72
2022-10-03T11:26:04.121Z,3.80
2022-10-03T11:28:40.527Z,3.30
2022-10-03T11:31:28.174Z,3.28
2022-10-03T11:34:19.929Z,3.30
2022-10-03T11:36:50.375Z,3.05
2022-10-03T11:39:24.432Z,3.15
2022-10-03T11:42:01.848Z,2.28
2022-10-03T11:44:38.739Z,2.58
2022-10-03T11:47:30.446Z,2.50
2022-10-03T11:49:59.679Z,3.08
2022-10-03T11:52:34.827Z,2.42
2022-10-03T11:57:31.832Z,2.38
2022-10-03T12:00:07.408Z,2.28
2022-10-03T12:02:45.125Z,2.10
2022-10-03T12:05:25.850Z,2.55
2022-10-03T12:08:22.705Z,2.53
2022-10-03T12:11:07.639Z,2.63
2022-10-03T12:13:54.858Z,2.35
2022-10-03T12:16:38.801Z,2.28
2022-10-03T12:19:13.532Z,2.10
2022-10-03T12:21:46.323Z,2.00
2022-10-03T12:24:18.517Z,3.15
2022-10-03T12:26:59.031Z,2.28
2022-10-03T12:29:30.421Z,2.13
2022-10-03T12:32:13.144Z,1.90
2022-10-03T12:34:41.083Z,2.22
2022-10-03T12:37:23.583Z,2.20
2022-10-03T12:40:07.147Z,1.95
2022-10-03T12:42:41.042Z,2.00
2022-10-03T12:45:13.675Z,3.00
2022-10-03T12:47:55.844Z,2.67
2022-10-03T12:50:36.581Z,3.00
2022-10-03T12:53:03.994Z,2.25
2022-10-03T12:55:37.360Z,2.30
2022-10-03T12:58:26.737Z,5.32
2022-10-03T13:01:14.235Z,1.95
2022-10-03T13:04:01.433Z,1.83
2022-10-03T13:07:01.885Z,2.13
2022-10-03T13:09:42.559Z,1.40
2022-10-03T13:12:17.424Z,1.08
2022-10-03T13:15:04.843Z,1.48
2022-10-03T13:17:50.110Z,1.30
2022-10-03T13:20:26.284Z,1.45
2022-10-03T13:23:04.711Z,1.38
2022-10-03T13:25:42.555Z,2.50
2022-10-03T13:28:16.095Z,1.75
2022-10-03T13:30:49.641Z,1.83
2022-10-03T13:33:20.889Z,1.98
2022-10-03T13:35:59.395Z,1.90
2022-10-03T13:38:33.632Z,1.60
2022-10-03T13:41:07.402Z,1.40
2022-10-03T13:43:38.694Z,1.65
2022-10-03T13:46:08.642Z,1.73
2022-10-03T13:48:36.552Z,1.70
2022-10-03T13:51:05.726Z,1.23
2022-10-03T13:53:51.165Z,1.33
2022-10-03T13:56:50.871Z,1.35
2022-10-03T13:59:21.548Z,1.30
2022-10-03T14:01:59.858Z,1.60
2022-10-03T14:04:44.016Z,1.67
2022-10-03T14:07:18.438Z,1.90
2022-10-03T14:09:49.100Z,1.40
2022-10-03T14:12:51.234Z,1.60
2022-10-03T14:15:31.224Z,1.13
2022-10-03T14:18:07.989Z,1.38
2022-10-03T14:20:35.850Z,1.30
2022-10-03T14:23:03.243Z,1.38
2022-10-03T14:25:42.905Z,1.52
2022-10-03T14:28:15.128Z,1.30
2022-10-03T14:31:12.266Z,1.02
2022-10-03T14:33:48.590Z,1.60
2022-10-03T14:36:15.880Z,1.63
2022-10-03T14:38:58.939Z,1.80
2022-10-03T14:41:47.155Z,2.03
2022-10-03T14:44:17.585Z,1.88
2022-10-03T14:46:51.147Z,1.25
2022-10-03T14:49:51.055Z,1.25
2022-10-03T14:52:15.815Z,1.55
2022-10-03T14:54:44.805Z,1.10
2022-10-03T14:57:47.838Z,0.90
2022-10-03T15:00:45.323Z,1.08
2022-10-03T15:03:20.538Z,1.45
2022-10-03T15:05:57.143Z,1.25
2022-10-03T15:08:32.990Z,1.42
2022-10-03T15:11:02.948Z,1.23
2022-10-03T15:13:35.195Z,1.30
2022-10-03T15:16:02.964Z,1.60
2022-10-03T15:18:31.375Z,1.67
2022-10-03T15:20:59.040Z,1.40
2022-10-03T15:23:26.350Z,1.60
2022-10-03T15:25:55.330Z,1.23
2022-10-03T15:28:28.583Z,1.10
2022-10-03T15:31:04.162Z,1.50
2022-10-03T15:33:40.289Z,2.13
2022-10-03T15:36:07.911Z,2.33
2022-10-03T15:38:39.909Z,2.05
2022-10-03T15:41:07.359Z,2.45
2022-10-03T15:43:38.958Z,2.10
2022-10-03T15:46:21.724Z,1.92
2022-10-03T15:48:54.494Z,2.65
2022-10-03T15:51:26.545Z,3.00
2022-10-03T15:54:00.897Z,2.72
2022-10-03T15:56:35.274Z,2.45
2022-10-03T15:59:04.495Z,1.80
2022-10-03T16:01:38.261Z,1.88
2022-10-03T16:04:26.148Z,1.80
2022-10-03T16:07:13.521Z,1.52
2022-10-03T16:09:45.648Z,2.00
2022-10-03T16:12:16.009Z,1.90
2022-10-03T16:14:45.923Z,2.05
2022-10-03T16:17:31.807Z,1.98
2022-10-03T16:20:18.084Z,2.15
2022-10-03T16:22:59.029Z,1.60
2022-10-03T16:25:27.719Z,1.83
2022-10-03T16:27:59.090Z,1.90
2022-10-03T16:30:31.662Z,1.73
2022-10-03T16:33:03.652Z,1.63
2022-10-03T16:35:38.853Z,1.92
2022-10-03T16:38:09.471Z,2.60
2022-10-03T16:40:38.190Z,1.80
2022-10-03T16:43:09.883Z,1.42
2022-10-03T16:45:46.091Z,1.83
2022-10-03T16:48:52.369Z,1.50
2022-10-03T16:53:49.110Z,1.10
2022-10-03T16:56:18.449Z,2.03
2022-10-03T16:58:49.943Z,1.95
2022-10-03T17:01:28.138Z,1.95
2022-10-03T17:04:18.985Z,1.52
2022-10-03T17:06:48.660Z,1.30
2022-10-03T17:09:20.311Z,2.50
2022-10-03T17:11:52.387Z,1.63
2022-10-03T17:14:20.769Z,2.25
2022-10-03T17:16:56.233Z,1.75
2022-10-03T17:19:26.904Z,1.70
2022-10-03T17:21:55.877Z,1.38
2022-10-03T17:24:37.811Z,1.60
2022-10-03T17:27:13.607Z,1.50
2022-10-03T17:29:54.270Z,1.70
2022-10-03T17:32:34.087Z,1.70
2022-10-03T17:35:07.488Z,1.40
2022-10-03T17:37:53.536Z,1.60
2022-10-03T17:40:30.280Z,1.50
2022-10-03T17:43:02.203Z,1.80
2022-10-03T17:45:31.624Z,1.45
2022-10-03T17:47:59.403Z,1.70
2022-10-03T17:50:37.831Z,1.73
2022-10-03T17:53:05.500Z,1.40
2022-10-03T17:55:41.013Z,1.48
2022-10-03T17:58:14.574Z,1.33
2022-10-03T18:00:44.996Z,1.35
2022-10-03T18:03:16.962Z,1.23
2022-10-03T18:05:48.219Z,1.17
2022-10-03T18:08:20.327Z,1.65
2022-10-03T18:10:49.616Z,2.15
2022-10-03T18:13:19.487Z,1.67
2022-10-03T18:15:53.049Z,1.73
2022-10-03T18:18:45.304Z,1.75
2022-10-03T18:21:15.454Z,1.80
2022-10-03T18:23:55.889Z,1.25
2022-10-03T18:26:23.632Z,1.30
2022-10-03T18:29:03.063Z,1.50
2022-10-03T18:31:34.517Z,1.33
2022-10-03T18:34:04.268Z,1.70
2022-10-03T18:36:34.767Z,1.20
2022-10-03T18:39:04.298Z,1.50
2022-10-03T18:41:32.237Z,1.60
2022-10-03T18:44:01.176Z,1.42
2022-10-03T18:46:36.679Z,1.55
2022-10-03T18:49:33.319Z,1.63
2022-10-03T18:52:21.859Z,1.92
2022-10-03T18:54:59.171Z,1.58
2022-10-03T18:57:26.589Z,1.73
2022-10-03T19:00:02.218Z,1.60
2022-10-03T19:02:49.232Z,1.83
2022-10-03T19:05:20.083Z,1.70
2022-10-03T19:08:13.156Z,1.80
2022-10-03T19:10:43.622Z,1.83
2022-10-03T19:13:19.056Z,1.50
2022-10-03T19:15:53.591Z,1.70
2022-10-03T19:18:23.749Z,1.67
2022-10-03T19:21:00.846Z,1.52
2022-10-03T19:23:32.056Z,1.60
2022-10-03T19:26:03.001Z,1.45
2022-10-03T19:28:34.400Z,1.40
2022-10-03T19:31:15.902Z,1.40
2022-10-03T19:33:44.251Z,1.73
2022-10-03T19:36:15.596Z,1.35
2022-10-03T19:38:47.746Z,1.52
2022-10-03T19:41:24.458Z,1.55
2022-10-03T19:43:52.422Z,1.25
2022-10-03T19:46:25.014Z,1.70
2022-10-03T19:48:53.075Z,1.50
2022-10-03T19:51:25.853Z,1.73
2022-10-03T19:53:56.803Z,1.15
2022-10-03T19:56:25.456Z,1.70
2022-10-03T19:59:16.424Z,1.55
2022-10-03T20:01:44.844Z,1.13
2022-10-03T20:04:14.320Z,1.90
2022-10-03T20:06:47.828Z,1.73
2022-10-03T20:09:32.121Z,1.65
2022-10-03T20:12:02.597Z,1.50
2022-10-03T20:14:34.636Z,2.13
2022-10-03T20:17:22.547Z,1.60
2022-10-03T20:20:02.567Z,1.50
2022-10-03T20:22:36.584Z,1.50
2022-10-03T20:25:07.103Z,1.50
2022-10-03T20:27:41.820Z,1.30
2022-10-03T20:30:09.213Z,0.98
2022-10-03T20:32:40.471Z,1.23
2022-10-03T20:35:13.438Z,2.28
2022-10-03T20:37:53.539Z,2.10
2022-10-03T20:40:30.727Z,2.40
2022-10-03T20:43:04.599Z,2.60
2022-10-03T20:45:35.848Z,2.40
2022-10-03T20:48:03.288Z,2.47
2022-10-03T20:50:33.048Z,2.58
2022-10-03T20:53:01.956Z,2.40
2022-10-03T20:55:34.165Z,2.78
2022-10-03T20:58:09.118Z,2.22
2022-10-03T21:00:43.223Z,2.10
2022-10-03T21:03:22.789Z,2.03
2022-10-03T21:05:55.460Z,2.00
2022-10-03T21:08:27.796Z,1.80
2022-10-03T21:11:13.335Z,2.10
2022-10-03T21:13:49.811Z,2.40
2022-10-03T21:16:21.862Z,1.83
2022-10-03T21:18:51.284Z,3.08
2022-10-03T21:21:26.743Z,2.42
2022-10-03T21:23:58.586Z,2.72
2022-10-03T21:26:28.470Z,2.40
2022-10-03T21:29:14.943Z,3.25
2022-10-03T21:31:54.791Z,3.50
2022-10-03T21:34:28.059Z,2.90
2022-10-03T21:37:18.667Z,3.28
2022-10-03T21:39:58.046Z,3.17
2022-10-03T21:42:32.139Z,2.30
2022-10-03T21:45:18.935Z,2.25
2022-10-03T21:47:55.435Z,2.20
2022-10-03T21:50:29.034Z,2.00
2022-10-03T21:52:56.401Z,1.90
2022-10-03T21:55:51.586Z,1.98
2022-10-03T21:58:33.151Z,1.90
2022-10-03T22:01:00.676Z,1.75
2022-10-03T22:03:52.351Z,2.00
2022-10-03T22:06:23.605Z,1.70
2022-10-03T22:08:51.003Z,1.77
2022-10-03T22:11:24.729Z,2.03
2022-10-03T22:14:10.539Z,1.80
2022-10-03T22:16:57.617Z,1.77
2022-10-03T22:19:43.766Z,1.45
2022-10-03T22:22:37.408Z,1.60
2022-10-03T22:25:15.208Z,1.67
2022-10-03T22:27:50.636Z,2.17
2022-10-03T22:30:19.456Z,1.77
2022-10-03T22:33:02.423Z,1.90
2022-10-03T22:35:50.014Z,2.00
2022-10-03T22:38:18.064Z,1.73
2022-10-03T22:40:47.616Z,1.98
2022-10-03T22:43:15.812Z,2.17
2022-10-03T22:45:46.202Z,2.55
2022-10-03T22:48:16.156Z,1.95
2022-10-03T22:50:44.195Z,2.17
2022-10-03T22:53:15.003Z,1.60
2022-10-03T22:55:44.384Z,1.85
2022-10-03T22:58:12.778Z,1.98
2022-10-03T23:00:42.443Z,1.98
2022-10-03T23:03:22.699Z,2.00
2022-10-03T23:05:59.138Z,2.00
2022-10-03T23:08:45.464Z,1.92
2022-10-03T23:11:24.178Z,1.42
2022-10-03T23:13:51.788Z,1.65
2022-10-03T23:16:34.428Z,1.92
2022-10-03T23:19:01.712Z,2.10
2022-10-03T23:21:29.618Z,2.03
2022-10-03T23:23:57.309Z,2.10
2022-10-03T23:26:43.515Z,2.17
2022-10-03T23:29:13.588Z,2.42
2022-10-03T23:31:56.394Z,3.28
2022-10-03T23:34:36.325Z,2.40
2022-10-03T23:37:15.747Z,2.40
2022-10-03T23:39:43.215Z,2.60
2022-10-03T23:42:21.453Z,3.10
2022-10-03T23:45:07.319Z,3.10
2022-10-03T23:47:39.942Z,3.30
2022-10-03T23:50:08.503Z,3.58
2022-10-03T23:52:47.801Z,4.13
2022-10-03T23:55:21.591Z,3.38
2022-10-03T23:57:49.361Z,4.07
